KONT

Ontario International Airport

Ontario, California, USA
METAR KONT 202353Z 26010G19KT 10SM FEW100 FEW200 BKN250 31/18 A2987 RMK AO2 SLP098 T03110183 10333 20272 56011
Observed Flight Rules
Aug-20 @ 23:53 UTC (16 minutes ago) Visual Flight Rules
Wind Visibility Clouds
260° at 10 knots
 Gusting to 19 knots
10 miles
  • Few at 10,000' AGL
  • Few at 20,000' AGL
  • Broken at 25,000' AGL
Temperatures Readings
Current 31°C / 88°F
Dewpoint 18°C / 64°F
Humidity 46%
Altimeter 29.87" Hg
Pressure 1009.8 hPa
Elevation 274
METAR KONT 202353Z 26010G19KT 10SM FEW100 FEW200 BKN250 31/18 A2987 RMK AO2 SLP098 T03110183 10333 20272 56011
Observed Flight Rules
Aug-20 @ 23:53 UTC
(16 minutes ago)
VFR
Wind Visibility
260° at 10 knots
 Gusting to 19 knots
10 miles
Clouds
  • Few at 10,000' AGL
  • Few at 20,000' AGL
  • Broken at 25,000' AGL
Temperature Dewpoint
31°C / 88°F 18°C / 64°F
Humidity Altimeter Pressure
46% 29.87" Hg 1009.8 hPa